Tortilla Flat, Arizona
Current Conditions -  °F | °C
As of 7:47 PM on Saturday 25 Oct 2014 (Local Time) from KFFZ Reporting Station
Clear Clear  
Wind Chill: 84°   Ceiling: Unl
Heat Index: 84°   Visibility: 20mi
Dew Point: 50°   Wind: 5mph
Humidity: 30%   Direction: 280°W
Pressure: 29.91"   Gusts: NA
Location:  33.53°N, 111.39°W
Report Text: KFFZ 260247Z 28004KT 20SM SKC 29/10 A2991
Loading
Personal Weather Stations






























Interactive Weather Map
Tropical Storm Tracking
New forecast layout! Learn more

10-Day Weather Forecast

Advertisements
Track Severe Weather on mobile